Time;durP1;ratioP1;P1;durP2;ratioP2;P2;SDS_P1;SDS_P2;PMS_P1;PMS_P2;Temp;Humidity;BMP_temperature;BMP_pressure;BME280_temperature;BME280_humidity;BME280_pressure;Samples;Min_cycle;Max_cycle;Signal;HPM_P1;HPM_P2
2023/10/26 00:00:31;;;;;;;5.70;0.60;;;12.70;26.80;;;;;;5003523;28;20472;-68
2023/10/26 00:02:58;;;;;;;3.10;0.60;;;12.70;26.80;;;;;;5004288;28;20475;-68
2023/10/26 00:05:25;;;;;;;3.10;0.73;;;12.70;26.80;;;;;;5003204;28;20488;-69
2023/10/26 00:07:53;;;;;;;4.33;0.80;;;12.70;26.50;;;;;;5004017;28;20601;-69
2023/10/26 00:10:20;;;;;;;3.20;0.70;;;12.70;26.50;;;;;;5002462;28;20597;-69
2023/10/26 00:12:46;;;;;;;2.97;0.60;;;12.70;26.10;;;;;;5007584;28;20464;-69
2023/10/26 00:15:13;;;;;;;3.73;0.60;;;12.70;26.20;;;;;;5002175;28;20491;-69
2023/10/26 00:17:40;;;;;;;3.30;0.80;;;12.70;26.30;;;;;;5009026;28;20480;-68
2023/10/26 00:20:08;;;;;;;3.57;0.60;;;12.60;26.30;;;;;;5001463;28;20459;-68
2023/10/26 00:22:35;;;;;;;3.00;0.50;;;12.60;26.30;;;;;;5003182;28;20463;-69
2023/10/26 00:25:03;;;;;;;4.90;0.80;;;12.50;26.30;;;;;;5001301;28;20491;-69
2023/10/26 00:27:30;;;;;;;4.40;0.57;;;12.50;26.30;;;;;;5005609;28;20467;-68
2023/10/26 00:29:57;;;;;;;4.40;0.73;;;12.50;26.30;;;;;;5001260;28;20476;-69
2023/10/26 00:32:23;;;;;;;3.00;0.50;;;12.40;26.30;;;;;;5003881;28;20481;-69
2023/10/26 00:34:50;;;;;;;3.60;0.80;;;12.40;26.40;;;;;;5003859;28;20551;-68
2023/10/26 00:37:17;;;;;;;3.40;0.70;;;12.30;26.60;;;;;;5005518;28;20491;-68
2023/10/26 00:39:43;;;;;;;3.20;0.60;;;12.30;26.60;;;;;;5006407;28;20931;-68
2023/10/26 00:42:12;;;;;;;3.90;0.60;;;12.30;26.70;;;;;;5005418;28;20483;-68
2023/10/26 00:44:39;;;;;;;3.83;0.53;;;12.20;26.60;;;;;;4995526;28;20519;-68
2023/10/26 00:47:06;;;;;;;3.00;0.50;;;12.20;26.70;;;;;;4998181;28;21006;-69
2023/10/26 00:49:33;;;;;;;3.50;0.70;;;12.20;26.80;;;;;;5005808;28;21137;-68
2023/10/26 00:52:02;;;;;;;3.10;0.70;;;12.10;26.80;;;;;;5005488;28;20470;-69
2023/10/26 00:54:30;;;;;;;4.93;0.90;;;12.10;27.00;;;;;;5002945;28;21200;-68
2023/10/26 00:56:57;;;;;;;2.90;0.50;;;12.00;27.10;;;;;;5002788;28;20471;-68
2023/10/26 00:59:27;;;;;;;3.17;0.60;;;12.10;27.30;;;;;;5003623;28;20467;-68
2023/10/26 01:01:56;;;;;;;5.07;0.60;;;12.00;27.20;;;;;;5003126;28;20483;-68
2023/10/26 01:04:22;;;;;;;3.00;0.60;;;12.00;27.10;;;;;;5002641;28;20491;-68
2023/10/26 01:06:49;;;;;;;3.30;0.67;;;12.00;27.00;;;;;;5011853;28;20470;-68
2023/10/26 01:09:16;;;;;;;4.57;0.70;;;12.00;27.00;;;;;;5018724;28;20990;-68
2023/10/26 01:11:44;;;;;;;3.20;0.80;;;12.00;26.90;;;;;;5010645;28;20475;-68
2023/10/26 01:14:10;;;;;;;5.93;0.60;;;12.00;27.10;;;;;;5004809;28;20491;-68
2023/10/26 01:16:38;;;;;;;3.37;0.57;;;12.00;27.00;;;;;;5005508;28;20460;-69
2023/10/26 01:19:06;;;;;;;3.20;0.50;;;12.00;26.80;;;;;;5007858;28;20483;-69
2023/10/26 01:21:48;;;;;;;3.50;0.83;;;11.90;27.00;;;;;;5008119;28;20468;-68
2023/10/26 01:24:15;;;;;;;3.00;0.60;;;11.90;27.30;;;;;;4999780;28;20487;-68
2023/10/26 01:26:41;;;;;;;4.10;0.57;;;11.90;27.20;;;;;;5003026;28;20455;-68
2023/10/26 01:29:08;;;;;;;3.00;0.60;;;11.90;27.10;;;;;;5001741;28;20457;-69
2023/10/26 01:31:35;;;;;;;3.53;0.60;;;11.80;27.20;;;;;;5004968;28;20479;-69
2023/10/26 01:34:01;;;;;;;3.20;0.57;;;11.80;27.10;;;;;;5003409;28;20459;-69
2023/10/26 01:36:28;;;;;;;4.60;0.70;;;11.80;27.20;;;;;;5005088;28;20463;-68
2023/10/26 01:38:56;;;;;;;3.50;0.40;;;11.80;27.20;;;;;;5005915;28;20850;-69
2023/10/26 01:41:23;;;;;;;2.97;0.60;;;11.80;27.10;;;;;;5001048;28;20463;-68
2023/10/26 01:43:50;;;;;;;3.47;0.70;;;11.80;26.80;;;;;;5006984;28;20471;-68
2023/10/26 01:46:16;;;;;;;3.60;0.70;;;11.80;26.80;;;;;;5001678;28;20467;-69
2023/10/26 01:48:43;;;;;;;3.13;0.53;;;11.80;26.90;;;;;;5005649;28;21188;-69
2023/10/26 01:51:10;;;;;;;3.67;0.60;;;11.80;26.70;;;;;;5006915;28;20467;-69
2023/10/26 01:53:36;;;;;;;3.03;0.60;;;11.80;26.70;;;;;;5008961;28;20940;-69
2023/10/26 01:56:05;;;;;;;3.30;0.50;;;11.80;26.70;;;;;;5008994;28;20484;-68
2023/10/26 01:58:32;;;;;;;3.63;0.50;;;11.80;26.80;;;;;;5009509;28;20557;-69
2023/10/26 02:00:58;;;;;;;3.07;0.60;;;11.80;26.70;;;;;;5004061;28;20479;-69
2023/10/26 02:03:25;;;;;;;3.00;0.50;;;11.80;26.40;;;;;;5006647;28;20468;-68
2023/10/26 02:05:52;;;;;;;3.00;0.40;;;11.70;26.60;;;;;;5004447;28;20483;-69
2023/10/26 02:08:18;;;;;;;3.33;0.60;;;11.70;26.60;;;;;;5005931;28;20464;-68
2023/10/26 02:10:45;;;;;;;7.17;0.50;;;11.70;26.70;;;;;;5007485;28;20471;-68
2023/10/26 02:13:13;;;;;;;3.03;0.50;;;11.80;26.70;;;;;;5011086;28;20471;-68
2023/10/26 02:15:40;;;;;;;3.20;0.60;;;11.80;26.50;;;;;;5009828;28;21024;-69
2023/10/26 02:18:07;;;;;;;4.53;0.70;;;11.80;26.40;;;;;;5007203;28;20477;-68
2023/10/26 02:20:33;;;;;;;3.03;0.50;;;11.80;26.40;;;;;;5006384;28;20464;-68
2023/10/26 02:23:00;;;;;;;3.97;0.80;;;11.80;26.40;;;;;;5008110;28;20984;-69
2023/10/26 02:25:27;;;;;;;3.27;0.70;;;11.80;26.30;;;;;;5024337;23;20586;-65
2023/10/26 02:27:53;;;;;;;3.27;0.50;;;11.80;26.30;;;;;;5027138;28;20455;-65
2023/10/26 02:30:21;;;;;;;2.80;0.30;;;11.80;26.30;;;;;;5027461;28;20834;-66
2023/10/26 02:32:48;;;;;;;3.00;0.67;;;11.70;26.20;;;;;;5021961;28;20466;-67
2023/10/26 02:35:16;;;;;;;3.00;0.50;;;11.70;26.40;;;;;;5013412;28;20487;-65
2023/10/26 02:37:43;;;;;;;5.40;0.50;;;11.70;26.40;;;;;;5023802;28;20479;-66
2023/10/26 02:40:10;;;;;;;3.50;0.57;;;11.60;26.40;;;;;;5023089;28;20490;-65
2023/10/26 02:42:38;;;;;;;2.80;0.50;;;11.60;26.20;;;;;;5027303;28;20459;-67
2023/10/26 02:45:06;;;;;;;3.30;0.50;;;11.60;26.20;;;;;;5021572;28;20480;-67
2023/10/26 02:47:34;;;;;;;3.47;0.60;;;11.60;26.40;;;;;;5024126;28;20467;-66
2023/10/26 02:50:01;;;;;;;4.40;0.90;;;11.60;26.40;;;;;;5024400;28;20955;-66
2023/10/26 02:52:28;;;;;;;3.00;0.50;;;11.60;26.40;;;;;;5021210;28;20467;-65
2023/10/26 02:54:54;;;;;;;3.10;0.60;;;11.60;26.40;;;;;;5024107;28;20485;-66
2023/10/26 02:57:21;;;;;;;3.63;0.50;;;11.60;26.40;;;;;;5024385;28;20459;-65
2023/10/26 02:59:47;;;;;;;2.93;0.60;;;11.50;26.40;;;;;;5020207;28;20486;-65
2023/10/26 03:02:14;;;;;;;3.67;0.67;;;11.50;26.50;;;;;;5017110;28;20475;-66
2023/10/26 03:04:42;;;;;;;3.00;0.53;;;11.50;26.60;;;;;;5022183;28;20486;-66
2023/10/26 03:07:10;;;;;;;3.57;0.50;;;11.50;27.20;;;;;;5021822;28;21216;-65
2023/10/26 03:09:37;;;;;;;3.00;0.60;;;11.40;26.60;;;;;;5023931;28;20451;-65
2023/10/26 03:12:04;;;;;;;3.40;0.70;;;11.50;26.80;;;;;;5023506;28;20459;-66
2023/10/26 03:14:31;;;;;;;2.90;0.50;;;11.40;26.60;;;;;;5020241;28;20491;-66
2023/10/26 03:16:58;;;;;;;3.10;0.50;;;11.50;26.70;;;;;;5019915;28;20854;-66
2023/10/26 03:19:25;;;;;;;3.50;0.57;;;11.40;26.60;;;;;;5021360;28;20488;-66
2023/10/26 03:21:53;;;;;;;3.13;0.80;;;11.50;26.70;;;;;;5023345;28;20459;-66
2023/10/26 03:24:19;;;;;;;5.00;0.60;;;11.50;26.80;;;;;;5022608;28;20479;-66
2023/10/26 03:26:46;;;;;;;2.90;0.47;;;11.60;26.50;;;;;;5016194;28;21172;-66
2023/10/26 03:29:13;;;;;;;3.70;0.40;;;11.60;26.30;;;;;;5020620;28;20471;-66
2023/10/26 03:31:41;;;;;;;3.30;0.67;;;11.60;26.30;;;;;;5023180;28;20482;-66
2023/10/26 03:34:08;;;;;;;3.50;0.60;;;11.60;26.40;;;;;;5014237;28;20514;-66
2023/10/26 03:36:35;;;;;;;3.37;0.50;;;11.60;26.40;;;;;;5021732;28;20470;-66
2023/10/26 03:39:03;;;;;;;3.87;0.40;;;11.60;26.20;;;;;;5022403;28;20488;-66
2023/10/26 03:41:30;;;;;;;3.87;0.50;;;11.60;26.10;;;;;;5021132;28;20460;-66
2023/10/26 03:43:56;;;;;;;3.20;0.70;;;11.60;26.20;;;;;;5017447;28;20472;-66
2023/10/26 03:46:23;;;;;;;5.33;1.00;;;11.60;26.20;;;;;;5022287;28;21272;-66
2023/10/26 03:48:51;;;;;;;3.50;0.53;;;11.50;26.20;;;;;;5023999;28;20467;-66
2023/10/26 03:51:17;;;;;;;3.37;0.60;;;11.50;26.30;;;;;;5020393;28;20475;-66
2023/10/26 03:53:44;;;;;;;3.17;0.50;;;11.40;26.40;;;;;;5019936;28;20846;-66
2023/10/26 03:56:12;;;;;;;3.00;0.50;;;11.40;26.50;;;;;;5015565;28;20468;-66
2023/10/26 03:58:39;;;;;;;3.10;0.50;;;11.40;26.40;;;;;;5019072;28;20478;-66
2023/10/26 04:01:06;;;;;;;3.70;0.70;;;11.40;26.60;;;;;;5017869;28;20485;-66
2023/10/26 04:03:32;;;;;;;3.00;0.40;;;11.40;26.50;;;;;;5023031;28;20936;-67
2023/10/26 04:05:59;;;;;;;3.57;0.60;;;11.40;26.60;;;;;;5024763;28;20493;-67
2023/10/26 04:08:26;;;;;;;9.77;0.90;;;11.30;26.80;;;;;;5016835;28;20467;-67
2023/10/26 04:10:52;;;;;;;3.83;0.63;;;11.30;26.70;;;;;;5019401;28;20462;-66
2023/10/26 04:13:20;;;;;;;4.70;0.90;;;11.30;26.80;;;;;;5021794;28;20482;-67
2023/10/26 04:15:48;;;;;;;3.67;0.60;;;11.20;26.80;;;;;;5035523;28;20479;-67
2023/10/26 04:18:15;;;;;;;2.87;0.47;;;11.20;26.80;;;;;;5030567;28;20513;-66
2023/10/26 04:20:42;;;;;;;3.37;0.77;;;11.10;26.90;;;;;;5027346;28;20463;-63
2023/10/26 04:23:08;;;;;;;3.83;0.60;;;11.10;26.90;;;;;;5033525;28;20468;-63
2023/10/26 04:25:35;;;;;;;3.20;0.50;;;11.10;26.90;;;;;;5031939;28;20228;-63
2023/10/26 04:28:03;;;;;;;4.03;0.67;;;11.00;26.90;;;;;;5029269;28;20466;-63
2023/10/26 04:30:32;;;;;;;4.40;0.80;;;11.00;26.90;;;;;;5026129;28;20549;-63
2023/10/26 04:32:59;;;;;;;3.50;0.80;;;11.00;27.00;;;;;;5020487;28;20474;-64
2023/10/26 04:35:25;;;;;;;3.20;0.73;;;11.00;27.10;;;;;;5023631;28;21200;-64
2023/10/26 04:37:52;;;;;;;3.03;0.70;;;11.00;27.20;;;;;;5023579;28;20481;-63
2023/10/26 04:40:19;;;;;;;3.00;0.70;;;11.00;27.30;;;;;;5024700;28;20542;-64
2023/10/26 04:42:46;;;;;;;3.10;0.67;;;11.00;27.40;;;;;;5027768;28;20474;-64
2023/10/26 04:45:13;;;;;;;3.73;1.03;;;11.00;27.40;;;;;;5018202;28;20491;-63
2023/10/26 04:47:41;;;;;;;3.00;0.57;;;11.00;27.50;;;;;;5023595;28;21226;-64
2023/10/26 04:50:09;;;;;;;3.90;0.90;;;11.00;27.50;;;;;;5022991;28;20451;-64
2023/10/26 04:52:36;;;;;;;3.07;0.70;;;11.00;27.60;;;;;;5022499;28;20470;-64
2023/10/26 04:55:04;;;;;;;2.90;0.60;;;11.00;27.70;;;;;;5020023;28;20608;-65
2023/10/26 04:57:30;;;;;;;4.30;0.90;;;11.00;27.70;;;;;;5018954;28;20466;-65
2023/10/26 04:59:57;;;;;;;3.57;0.97;;;11.00;27.80;;;;;;5023761;28;20859;-65
2023/10/26 05:02:24;;;;;;;3.40;0.70;;;11.00;27.90;;;;;;5020565;28;20470;-64
2023/10/26 05:04:52;;;;;;;4.53;0.80;;;11.10;27.90;;;;;;5023220;28;20501;-63
2023/10/26 05:07:18;;;;;;;4.00;0.80;;;11.10;27.90;;;;;;5017949;28;20466;-64
2023/10/26 05:09:45;;;;;;;3.33;0.90;;;11.10;28.00;;;;;;5022684;28;20690;-65
2023/10/26 05:12:12;;;;;;;4.33;0.70;;;11.20;27.90;;;;;;5020030;28;20463;-64
2023/10/26 05:14:39;;;;;;;3.07;0.70;;;11.20;27.90;;;;;;5023018;28;20486;-64
2023/10/26 05:17:05;;;;;;;3.10;0.67;;;11.20;27.90;;;;;;5016377;28;20966;-64
2023/10/26 05:19:33;;;;;;;4.90;0.80;;;11.30;27.90;;;;;;5024318;28;20521;-64
2023/10/26 05:22:01;;;;;;;3.20;0.67;;;11.30;28.00;;;;;;5020975;28;20463;-64
2023/10/26 05:24:28;;;;;;;4.93;0.87;;;11.30;27.90;;;;;;5020781;28;20480;-63
2023/10/26 05:26:54;;;;;;;3.10;0.60;;;11.40;28.00;;;;;;5025691;28;20470;-63
2023/10/26 05:29:21;;;;;;;3.20;0.70;;;11.40;27.90;;;;;;5024062;28;20470;-63
2023/10/26 05:31:48;;;;;;;3.47;0.77;;;11.40;27.90;;;;;;5019416;28;20858;-63
2023/10/26 05:34:14;;;;;;;3.73;1.00;;;11.40;27.90;;;;;;5027773;28;20486;-63
2023/10/26 05:36:41;;;;;;;3.20;0.70;;;11.50;28.00;;;;;;5022977;28;20963;-64
2023/10/26 05:39:09;;;;;;;3.80;1.00;;;11.50;27.90;;;;;;5024394;28;20853;-65
2023/10/26 05:41:36;;;;;;;3.37;0.87;;;11.50;28.00;;;;;;5028286;28;20466;-65
2023/10/26 05:44:03;;;;;;;4.27;1.03;;;11.50;28.00;;;;;;5025273;28;20458;-65
2023/10/26 05:46:29;;;;;;;3.80;1.20;;;11.50;28.20;;;;;;5021531;28;20831;-66
2023/10/26 05:48:56;;;;;;;5.40;1.20;;;11.50;28.20;;;;;;5023170;28;20470;-65
2023/10/26 05:51:23;;;;;;;3.90;0.90;;;11.50;28.30;;;;;;5023322;28;20462;-66
2023/10/26 05:53:49;;;;;;;4.77;1.00;;;11.50;28.30;;;;;;5026378;28;20455;-65
2023/10/26 05:56:18;;;;;;;6.07;1.07;;;11.50;28.50;;;;;;5027535;28;20522;-66
2023/10/26 05:58:44;;;;;;;3.77;1.10;;;11.50;28.60;;;;;;5023171;28;20537;-64
2023/10/26 06:01:11;;;;;;;3.67;1.03;;;11.50;28.60;;;;;;5029421;28;20479;-65
2023/10/26 06:03:38;;;;;;;3.93;1.20;;;11.50;28.60;;;;;;5020455;28;20450;-64
2023/10/26 06:06:05;;;;;;;5.40;1.50;;;11.50;28.60;;;;;;5025387;28;20493;-66
2023/10/26 06:08:31;;;;;;;3.80;1.43;;;11.50;28.70;;;;;;5024695;28;20470;-66
2023/10/26 06:10:58;;;;;;;3.77;1.03;;;11.50;28.70;;;;;;5026724;28;20469;-65
2023/10/26 06:13:27;;;;;;;7.43;1.20;;;11.50;28.60;;;;;;5020726;28;20452;-64
2023/10/26 06:15:53;;;;;;;3.77;1.13;;;11.60;28.70;;;;;;5028893;28;20491;-64
2023/10/26 06:18:20;;;;;;;4.30;1.20;;;11.50;28.70;;;;;;5021409;28;20470;-65
2023/10/26 06:20:57;;;;;;;4.87;1.90;;;11.50;28.70;;;;;;5025846;28;20490;-64
2023/10/26 06:23:24;;;;;;;4.00;1.20;;;11.60;29.10;;;;;;5020721;28;20501;-66
2023/10/26 06:25:58;;;;;;;7.50;1.80;;;11.60;29.00;;;;;;5024119;28;20507;-64
2023/10/26 06:28:26;;;;;;;5.23;1.60;;;11.60;29.10;;;;;;5026010;28;20776;-66
2023/10/26 06:30:52;;;;;;;4.00;1.30;;;11.60;29.20;;;;;;5025395;28;20884;-63
2023/10/26 06:33:19;;;;;;;4.80;1.17;;;11.60;29.30;;;;;;5021970;28;20470;-64
2023/10/26 06:35:46;;;;;;;5.60;1.40;;;11.70;29.60;;;;;;5023218;28;20491;-64
2023/10/26 06:38:12;;;;;;;3.90;1.20;;;11.70;29.50;;;;;;5025763;28;20841;-64
2023/10/26 06:40:39;;;;;;;3.77;1.23;;;11.70;29.70;;;;;;5025236;28;20483;-64
2023/10/26 06:43:06;;;;;;;3.90;1.50;;;11.70;29.80;;;;;;5025552;28;20456;-63
2023/10/26 06:45:34;;;;;;;3.60;1.30;;;11.80;29.80;;;;;;5028417;28;20514;-65
2023/10/26 06:48:01;;;;;;;4.07;1.53;;;11.80;29.90;;;;;;5029226;28;20459;-64
2023/10/26 06:50:28;;;;;;;4.83;1.53;;;11.80;30.00;;;;;;5027301;28;20951;-64
2023/10/26 06:52:55;;;;;;;4.50;1.70;;;11.80;30.20;;;;;;5027098;28;20459;-64
2023/10/26 06:55:21;;;;;;;3.43;1.30;;;11.80;30.30;;;;;;5022903;28;21257;-64
2023/10/26 06:57:48;;;;;;;3.60;1.10;;;11.90;30.30;;;;;;5023655;28;20464;-65
2023/10/26 07:00:15;;;;;;;5.60;1.20;;;11.90;30.40;;;;;;5024299;28;20486;-65
2023/10/26 07:02:43;;;;;;;4.00;1.57;;;11.90;30.40;;;;;;5022365;28;20479;-64
2023/10/26 07:05:10;;;;;;;4.47;1.50;;;11.90;30.70;;;;;;5026823;28;20479;-64
2023/10/26 07:07:37;;;;;;;4.70;1.33;;;12.00;30.70;;;;;;5019183;28;20471;-65
2023/10/26 07:10:04;;;;;;;4.10;1.40;;;12.00;30.70;;;;;;5025810;28;20463;-65
2023/10/26 07:12:31;;;;;;;4.60;1.40;;;12.00;30.60;;;;;;5021283;28;20497;-65
2023/10/26 07:14:59;;;;;;;4.97;1.60;;;12.00;30.80;;;;;;5026154;28;20514;-64
2023/10/26 07:17:26;;;;;;;4.97;1.40;;;12.10;31.00;;;;;;5024432;28;20463;-64
2023/10/26 07:19:54;;;;;;;4.53;1.07;;;12.10;31.10;;;;;;5022825;28;20483;-65
2023/10/26 07:22:21;;;;;;;6.13;1.87;;;12.20;30.90;;;;;;5024931;28;20463;-65
2023/10/26 07:24:49;;;;;;;5.63;1.50;;;12.30;30.90;;;;;;5027215;28;20491;-63
2023/10/26 07:27:16;;;;;;;3.90;1.17;;;12.30;30.80;;;;;;5026687;28;20455;-64
2023/10/26 07:29:44;;;;;;;4.77;1.30;;;12.40;30.80;;;;;;5023387;28;20846;-63
2023/10/26 07:32:11;;;;;;;3.90;1.30;;;12.40;30.70;;;;;;5023424;28;20963;-63
2023/10/26 07:34:38;;;;;;;4.87;1.60;;;12.50;30.50;;;;;;5019349;28;20483;-63
2023/10/26 07:37:06;;;;;;;4.50;1.57;;;12.50;30.60;;;;;;5022222;28;20958;-64
2023/10/26 07:39:33;;;;;;;4.10;1.27;;;12.60;30.50;;;;;;5021181;28;20680;-65
2023/10/26 07:42:00;;;;;;;4.70;1.57;;;12.60;30.60;;;;;;5015483;28;20574;-65
2023/10/26 07:44:27;;;;;;;3.80;1.23;;;12.60;30.40;;;;;;5021630;28;20556;-65
2023/10/26 07:46:54;;;;;;;5.47;1.37;;;12.70;30.20;;;;;;5024741;28;20466;-66
2023/10/26 07:49:20;;;;;;;3.60;1.33;;;12.70;30.40;;;;;;5017107;28;20451;-65
2023/10/26 07:51:49;;;;;;;4.97;2.10;;;12.70;30.30;;;;;;5020752;28;20955;-64
2023/10/26 07:54:17;;;;;;;5.63;1.47;;;12.80;30.20;;;;;;5023421;28;20501;-65
2023/10/26 07:56:44;;;;;;;4.53;1.60;;;12.80;30.10;;;;;;5017246;28;20559;-64
2023/10/26 07:59:11;;;;;;;4.00;1.57;;;12.80;30.50;;;;;;5023200;28;20459;-65
2023/10/26 08:01:37;;;;;;;3.77;1.60;;;12.80;30.40;;;;;;5025847;28;20475;-63
2023/10/26 08:04:03;;;;;;;6.57;1.60;;;12.80;30.40;;;;;;5017921;28;20486;-63
2023/10/26 08:06:30;;;;;;;3.80;1.40;;;12.80;30.60;;;;;;5019711;28;20603;-63
2023/10/26 08:08:58;;;;;;;3.43;1.23;;;12.80;30.50;;;;;;5025779;28;20463;-65
2023/10/26 08:11:26;;;;;;;4.83;1.23;;;12.90;30.70;;;;;;5016546;28;20466;-67
2023/10/26 08:13:53;;;;;;;4.07;1.23;;;12.90;30.60;;;;;;5020890;28;21341;-66
2023/10/26 08:16:20;;;;;;;4.27;1.70;;;13.00;30.50;;;;;;5021411;28;20542;-65
2023/10/26 08:18:46;;;;;;;4.30;1.50;;;13.00;30.80;;;;;;5019673;28;20470;-65
2023/10/26 08:21:13;;;;;;;3.57;1.10;;;13.00;31.00;;;;;;5020651;28;20482;-66
2023/10/26 08:23:40;;;;;;;3.40;0.90;;;13.10;31.10;;;;;;5019990;28;20477;-64
2023/10/26 08:26:07;;;;;;;3.50;1.00;;;13.10;31.10;;;;;;5017567;28;20487;-65
2023/10/26 08:28:36;;;;;;;3.53;0.90;;;13.10;31.40;;;;;;5024031;28;20886;-65
2023/10/26 08:31:03;;;;;;;3.23;0.87;;;13.20;31.40;;;;;;5020266;28;20854;-65
2023/10/26 08:33:30;;;;;;;3.90;0.87;;;13.30;31.70;;;;;;5017551;28;20468;-66
2023/10/26 08:35:57;;;;;;;3.77;0.70;;;13.20;31.60;;;;;;5018265;28;20488;-65
2023/10/26 08:38:23;;;;;;;3.63;0.93;;;13.20;32.00;;;;;;5027092;23;20502;-64
2023/10/26 08:40:51;;;;;;;3.90;1.00;;;13.20;32.10;;;;;;5007301;28;20487;-64
2023/10/26 08:43:18;;;;;;;4.27;1.20;;;13.20;32.30;;;;;;5008423;28;20468;-67
2023/10/26 08:45:47;;;;;;;4.00;1.10;;;13.30;32.30;;;;;;5004860;28;20545;-66
2023/10/26 08:48:16;;;;;;;4.00;1.00;;;13.40;32.50;;;;;;5007714;28;20918;-63
2023/10/26 08:50:43;;;;;;;3.40;0.87;;;13.40;32.60;;;;;;5001812;28;20573;-64
2023/10/26 08:53:10;;;;;;;3.50;0.80;;;13.40;33.20;;;;;;5001898;28;20464;-64
2023/10/26 08:55:38;;;;;;;3.20;0.67;;;13.40;32.60;;;;;;5003552;28;20490;-63
2023/10/26 08:58:05;;;;;;;3.10;0.60;;;13.50;32.80;;;;;;5009358;28;20468;-63
2023/10/26 09:00:32;;;;;;;3.40;0.77;;;13.50;32.90;;;;;;5008378;28;20479;-65
2023/10/26 09:03:00;;;;;;;3.10;0.80;;;13.60;32.70;;;;;;5004524;28;20472;-65
2023/10/26 09:05:27;;;;;;;3.10;0.60;;;13.60;32.80;;;;;;5007184;28;20480;-65
2023/10/26 09:07:54;;;;;;;3.10;0.60;;;13.60;32.70;;;;;;5009579;28;20959;-64
2023/10/26 09:10:29;;;;;;;3.00;0.53;;;13.60;32.70;;;;;;5001513;28;20461;-64
2023/10/26 09:13:01;;;;;;;3.40;0.60;;;13.60;32.80;;;;;;5007579;28;20471;-64
2023/10/26 09:15:28;;;;;;;3.70;1.00;;;13.70;32.70;;;;;;5006572;28;20498;-64
2023/10/26 09:17:57;;;;;;;3.13;0.70;;;13.60;32.80;;;;;;5004429;28;20500;-64
2023/10/26 09:20:26;;;;;;;3.83;0.80;;;13.70;32.90;;;;;;5009266;28;20483;-63
2023/10/26 09:22:53;;;;;;;3.00;0.50;;;13.70;33.10;;;;;;5002120;28;20464;-63
2023/10/26 09:25:20;;;;;;;2.90;0.50;;;13.70;32.90;;;;;;5008289;28;20479;-63
2023/10/26 09:27:47;;;;;;;3.27;0.73;;;13.70;33.10;;;;;;5008297;28;20955;-63
2023/10/26 09:30:25;;;;;;;5.73;0.70;;;13.70;33.10;;;;;;5003434;28;20460;-64
2023/10/26 09:32:52;;;;;;;3.67;0.67;;;13.70;33.40;;;;;;5009409;28;20555;-64
2023/10/26 09:35:32;;;;;;;3.27;0.60;;;13.70;33.30;;;;;;5007836;28;20510;-64
2023/10/26 09:37:59;;;;;;;3.80;0.60;;;13.70;33.50;;;;;;5004069;28;22654;-63
2023/10/26 09:40:27;;;;;;;3.00;0.50;;;13.70;33.20;;;;;;5007429;28;21494;-64
2023/10/26 09:42:55;;;;;;;3.30;0.60;;;13.70;33.40;;;;;;5005814;28;20503;-64
2023/10/26 09:45:22;;;;;;;3.00;0.60;;;13.80;33.30;;;;;;5009784;28;20562;-63
2023/10/26 09:47:49;;;;;;;3.20;0.80;;;13.80;33.40;;;;;;5005168;28;20471;-64
2023/10/26 09:50:16;;;;;;;3.27;0.80;;;13.80;33.50;;;;;;5008012;28;20464;-65
2023/10/26 09:52:45;;;;;;;3.27;0.77;;;13.90;33.20;;;;;;5005821;28;20506;-65
2023/10/26 09:55:12;;;;;;;3.57;0.87;;;13.90;33.20;;;;;;5011707;28;20480;-66
2023/10/26 09:57:44;;;;;;;2.87;0.50;;;13.90;33.20;;;;;;5006639;28;20463;-65
2023/10/26 10:00:13;;;;;;;3.57;0.70;;;13.90;33.50;;;;;;5004489;28;20515;-64
2023/10/26 10:02:40;;;;;;;2.90;0.50;;;14.00;33.50;;;;;;5007836;28;20471;-64
2023/10/26 10:05:07;;;;;;;3.00;0.80;;;13.90;33.60;;;;;;5006063;28;20495;-65
2023/10/26 10:07:45;;;;;;;3.57;0.70;;;13.90;33.70;;;;;;5008173;28;21026;-65
2023/10/26 10:10:13;;;;;;;4.73;1.07;;;13.90;33.80;;;;;;5007729;28;20478;-65
2023/10/26 10:12:42;;;;;;;3.97;1.07;;;13.90;33.60;;;;;;5007226;28;20463;-65
2023/10/26 10:15:11;;;;;;;3.10;0.93;;;13.90;33.90;;;;;;5009531;28;20858;-65
2023/10/26 10:18:02;;;;;;;3.80;1.30;;;13.80;34.30;;;;;;5009266;28;20463;-65
2023/10/26 10:20:31;;;;;;;3.93;1.40;;;13.80;34.40;;;;;;5011384;28;20479;-65
2023/10/26 10:23:00;;;;;;;7.87;1.63;;;13.80;34.40;;;;;;5004727;28;20468;-65
2023/10/26 10:25:59;;;;;;;6.20;3.00;;;13.90;34.60;;;;;;5007759;28;20498;-66
2023/10/26 10:28:48;;;;;;;4.00;1.60;;;14.00;34.60;;;;;;5007243;28;20494;-65
2023/10/26 10:31:37;;;;;;;3.83;1.60;;;14.10;34.70;;;;;;5007157;28;20483;-66
2023/10/26 10:34:05;;;;;;;4.27;2.03;;;14.10;34.50;;;;;;5002889;28;20840;-65
2023/10/26 10:37:14;;;;;;;4.87;1.37;;;14.20;34.00;;;;;;5007434;28;20511;-67
2023/10/26 10:40:10;;;;;;;3.60;1.07;;;14.30;34.30;;;;;;4972115;28;20479;-66
2023/10/26 10:42:38;;;;;;;3.80;1.47;;;14.40;33.90;;;;;;4998561;28;20522;-66
2023/10/26 10:45:05;;;;;;;3.60;1.23;;;14.60;33.40;;;;;;5010046;28;20499;-66
2023/10/26 10:47:32;;;;;;;3.73;1.30;;;14.70;33.40;;;;;;5005822;28;20827;-66
2023/10/26 10:50:14;;;;;;;3.10;0.90;;;14.80;32.90;;;;;;5009554;28;20967;-66
2023/10/26 10:52:41;;;;;;;3.63;1.27;;;14.80;33.20;;;;;;5004036;28;20494;-66
2023/10/26 10:55:08;;;;;;;5.00;0.90;;;14.90;33.30;;;;;;5005251;28;20485;-66
2023/10/26 10:57:51;;;;;;;3.30;0.70;;;15.10;33.10;;;;;;5009007;28;20460;-66
2023/10/26 11:00:18;;;;;;;3.93;1.00;;;15.20;33.00;;;;;;5007640;28;20463;-66
2023/10/26 11:02:46;;;;;;;3.00;0.60;;;15.30;32.40;;;;;;5008669;28;20956;-66
2023/10/26 11:05:13;;;;;;;4.07;1.00;;;15.50;32.20;;;;;;5005220;28;20543;-66
2023/10/26 11:07:41;;;;;;;3.13;0.70;;;15.80;32.00;;;;;;5008867;28;20981;-67
2023/10/26 11:10:08;;;;;;;3.10;0.60;;;15.90;31.00;;;;;;5004961;28;20464;-66
2023/10/26 11:12:36;;;;;;;3.67;0.60;;;16.10;31.30;;;;;;5004645;28;20468;-66
2023/10/26 11:15:04;;;;;;;3.40;0.70;;;16.20;30.30;;;;;;5006641;28;20483;-66
2023/10/26 11:17:32;;;;;;;4.70;0.90;;;16.40;30.30;;;;;;5009314;28;21075;-66
2023/10/26 11:19:59;;;;;;;5.20;0.73;;;16.60;29.80;;;;;;5006741;28;20463;-66
2023/10/26 11:22:26;;;;;;;3.13;0.67;;;16.90;28.70;;;;;;5000339;28;20502;-66
2023/10/26 11:24:53;;;;;;;3.33;0.80;;;17.10;27.40;;;;;;5002156;28;20538;-66
2023/10/26 11:27:21;;;;;;;3.30;1.03;;;17.20;26.80;;;;;;5007616;28;20464;-66
2023/10/26 11:30:03;;;;;;;4.70;1.00;;;17.20;26.30;;;;;;5004594;28;20907;-65
2023/10/26 11:32:30;;;;;;;3.30;0.90;;;17.40;26.40;;;;;;5005252;28;20566;-64
2023/10/26 11:35:11;;;;;;;3.37;1.10;;;17.40;26.00;;;;;;5007191;28;20534;-65
2023/10/26 11:37:40;;;;;;;3.70;1.00;;;17.50;25.30;;;;;;5005879;28;20467;-64
2023/10/26 11:40:08;;;;;;;4.60;1.00;;;17.60;24.90;;;;;;5003172;28;20463;-65
2023/10/26 11:42:48;;;;;;;7.20;1.10;;;17.70;24.80;;;;;;5005349;28;20484;-65
2023/10/26 11:45:17;;;;;;;6.17;1.80;;;17.80;24.20;;;;;;5007268;28;20995;-64
2023/10/26 11:47:48;;;;;;;3.30;0.87;;;17.80;24.80;;;;;;5004267;28;20468;-64
2023/10/26 11:50:19;;;;;;;4.70;0.90;;;18.00;23.60;;;;;;5004609;28;20526;-64
2023/10/26 11:52:49;;;;;;;3.47;1.07;;;18.10;23.30;;;;;;5005873;28;20491;-64
2023/10/26 11:55:16;;;;;;;5.93;0.80;;;18.20;22.90;;;;;;5000782;28;20522;-64
2023/10/26 11:57:43;;;;;;;3.87;0.90;;;18.60;23.00;;;;;;5006182;28;20964;-64
2023/10/26 12:00:11;;;;;;;4.53;0.90;;;19.00;21.50;;;;;;5005811;28;20468;-64
2023/10/26 12:02:40;;;;;;;3.50;0.80;;;19.20;19.90;;;;;;5001862;28;21019;-64
2023/10/26 12:05:07;;;;;;;4.47;0.97;;;19.40;18.60;;;;;;5005292;28;20491;-64
2023/10/26 12:07:34;;;;;;;4.37;1.20;;;19.70;18.20;;;;;;5005489;28;20819;-65
2023/10/26 12:10:02;;;;;;;5.80;1.00;;;20.00;17.80;;;;;;5008175;28;20464;-65
2023/10/26 12:12:31;;;;;;;4.17;1.10;;;20.40;16.00;;;;;;5003889;28;20453;-64
2023/10/26 12:14:58;;;;;;;5.00;1.13;;;20.30;14.90;;;;;;5008066;28;20555;-64
2023/10/26 12:17:24;;;;;;;5.57;0.93;;;20.10;14.70;;;;;;5007747;28;20463;-65
2023/10/26 12:19:52;;;;;;;4.07;0.90;;;20.00;14.90;;;;;;5002381;28;20464;-65
2023/10/26 12:22:20;;;;;;;5.90;1.20;;;19.80;14.80;;;;;;5005081;28;20487;-65
2023/10/26 12:24:46;;;;;;;5.70;1.17;;;19.70;15.00;;;;;;5003788;28;20566;-63
2023/10/26 12:27:16;;;;;;;6.03;1.20;;;19.70;15.00;;;;;;5005244;28;20467;-63
2023/10/26 12:29:43;;;;;;;6.23;1.27;;;19.90;15.40;;;;;;5000104;28;20468;-63
2023/10/26 12:32:09;;;;;;;5.00;1.63;;;20.10;14.10;;;;;;5002116;28;20487;-65
2023/10/26 12:34:36;;;;;;;6.37;1.40;;;20.10;14.20;;;;;;5004661;28;20487;-64
2023/10/26 12:37:04;;;;;;;4.50;1.20;;;20.30;13.90;;;;;;5001945;28;20472;-65
2023/10/26 12:39:31;;;;;;;3.90;1.07;;;20.60;13.80;;;;;;5005389;28;20475;-64
2023/10/26 12:41:58;;;;;;;5.73;1.30;;;20.90;12.50;;;;;;5001921;28;20475;-65
2023/10/26 12:44:25;;;;;;;5.60;1.40;;;21.10;12.20;;;;;;5003335;28;20469;-65
2023/10/26 12:46:52;;;;;;;5.77;1.80;;;21.30;11.60;;;;;;5002364;28;20548;-66
2023/10/26 12:49:21;;;;;;;6.27;1.50;;;21.40;11.00;;;;;;5001174;28;20467;-64
2023/10/26 12:51:47;;;;;;;8.30;2.13;;;21.40;10.60;;;;;;5005845;28;20468;-64